createdAt,value
2022-11-25T00:00:08.431Z,554.19
2022-11-25T00:00:18.432Z,554.19
2022-11-25T00:00:28.443Z,554.18
2022-11-25T00:00:38.434Z,554.20
2022-11-25T00:00:48.444Z,554.20
2022-11-25T00:00:58.438Z,554.30
2022-11-25T00:01:08.437Z,554.30
2022-11-25T00:01:18.455Z,554.37
2022-11-25T00:01:28.443Z,554.37
2022-11-25T00:01:38.442Z,554.39
2022-11-25T00:01:48.503Z,554.43
2022-11-25T00:01:58.513Z,554.43
2022-11-25T00:02:08.515Z,554.44
2022-11-25T00:02:18.555Z,554.44
2022-11-25T00:02:28.518Z,554.49
2022-11-25T00:02:38.520Z,554.52
2022-11-25T00:02:48.567Z,554.53
2022-11-25T00:02:58.559Z,554.53
2022-11-25T00:03:08.539Z,554.61
2022-11-25T00:03:18.509Z,554.62
2022-11-25T00:03:28.498Z,554.64
2022-11-25T00:03:38.483Z,554.63
2022-11-25T00:03:48.450Z,554.59
2022-11-25T00:03:58.451Z,554.59
2022-11-25T00:04:08.449Z,554.58
2022-11-25T00:04:18.450Z,554.53
2022-11-25T00:04:28.449Z,554.53
2022-11-25T00:04:38.452Z,554.55
2022-11-25T00:04:48.452Z,554.56
2022-11-25T00:04:58.451Z,554.54
2022-11-25T00:05:08.453Z,554.49
2022-11-25T00:05:18.455Z,554.57
2022-11-25T00:05:28.462Z,554.56
2022-11-25T00:05:38.454Z,554.59
2022-11-25T00:05:48.458Z,554.61
2022-11-25T00:05:58.455Z,554.63
2022-11-25T00:06:08.455Z,554.61
2022-11-25T00:06:18.457Z,554.66
2022-11-25T00:06:28.457Z,554.69
2022-11-25T00:06:38.462Z,554.72
2022-11-25T00:06:48.459Z,554.73
2022-11-25T00:06:58.460Z,554.79
2022-11-25T00:07:08.524Z,554.79
2022-11-25T00:07:18.576Z,554.86
2022-11-25T00:07:28.488Z,554.85
2022-11-25T00:07:38.531Z,554.88
2022-11-25T00:07:48.568Z,554.89
2022-11-25T00:07:58.464Z,554.91
2022-11-25T00:08:08.466Z,555.02
2022-11-25T00:08:18.479Z,554.93
2022-11-25T00:08:28.464Z,554.96
2022-11-25T00:08:38.465Z,555.06
2022-11-25T00:08:48.468Z,555.09
2022-11-25T00:08:58.468Z,555.10
2022-11-25T00:09:08.471Z,555.08
2022-11-25T00:09:18.481Z,555.05
2022-11-25T00:09:28.473Z,555.03
2022-11-25T00:09:38.472Z,555.07
2022-11-25T00:09:48.476Z,555.08
2022-11-25T00:09:58.471Z,555.05
2022-11-25T00:10:08.476Z,554.99
2022-11-25T00:10:18.473Z,555.00
2022-11-25T00:10:28.474Z,555.09
2022-11-25T00:10:38.474Z,555.03
2022-11-25T00:10:48.478Z,555.01
2022-11-25T00:10:58.478Z,555.10
2022-11-25T00:11:08.479Z,555.09
2022-11-25T00:11:18.509Z,555.12
2022-11-25T00:11:28.463Z,555.12
2022-11-25T00:11:38.483Z,555.11
2022-11-25T00:11:48.489Z,555.12
2022-11-25T00:11:58.479Z,555.13
2022-11-25T00:12:08.480Z,555.23
2022-11-25T00:12:18.490Z,555.23
2022-11-25T00:12:28.482Z,555.23
2022-11-25T00:12:38.490Z,555.22
2022-11-25T00:12:48.511Z,555.24
2022-11-25T00:12:58.486Z,555.19
2022-11-25T00:13:08.469Z,555.24
2022-11-25T00:13:18.504Z,555.24
2022-11-25T00:13:28.490Z,555.26
2022-11-25T00:13:38.489Z,555.28
2022-11-25T00:13:48.495Z,555.29
2022-11-25T00:13:58.492Z,555.30
2022-11-25T00:14:08.492Z,555.31
2022-11-25T00:14:18.496Z,555.38
2022-11-25T00:14:28.493Z,555.32
2022-11-25T00:14:38.493Z,555.35
2022-11-25T00:14:48.523Z,555.34
2022-11-25T00:14:58.497Z,555.34
2022-11-25T00:15:08.495Z,555.42
2022-11-25T00:15:18.496Z,555.44
2022-11-25T00:15:28.497Z,555.44
2022-11-25T00:15:38.499Z,555.41
2022-11-25T00:15:48.525Z,555.38
2022-11-25T00:15:58.500Z,555.44
2022-11-25T00:16:08.561Z,555.50
2022-11-25T00:16:18.557Z,555.44
2022-11-25T00:16:28.559Z,555.48
2022-11-25T00:16:40.571Z,555.51
2022-11-25T00:16:49.551Z,555.49
2022-11-25T00:16:58.531Z,555.49
2022-11-25T00:17:08.581Z,555.42
2022-11-25T00:17:18.507Z,555.44
2022-11-25T00:17:28.508Z,555.49
2022-11-25T00:17:38.507Z,555.47
2022-11-25T00:17:48.509Z,555.51
2022-11-25T00:17:58.508Z,555.56
2022-11-25T00:18:08.509Z,555.60
2022-11-25T00:18:18.518Z,555.58
2022-11-25T00:18:28.512Z,555.57
2022-11-25T00:18:38.510Z,555.60
2022-11-25T00:18:48.524Z,555.62
2022-11-25T00:18:58.512Z,555.61
2022-11-25T00:19:08.542Z,555.61
2022-11-25T00:19:18.527Z,555.54
2022-11-25T00:19:28.515Z,555.56
2022-11-25T00:19:38.515Z,555.59
2022-11-25T00:19:48.521Z,555.61
2022-11-25T00:19:58.518Z,555.60
2022-11-25T00:20:08.521Z,555.58
2022-11-25T00:20:18.519Z,555.58
2022-11-25T00:20:28.521Z,555.61
2022-11-25T00:20:38.522Z,555.64
2022-11-25T00:20:48.532Z,555.68
2022-11-25T00:20:58.524Z,555.69
2022-11-25T00:21:08.526Z,555.63
2022-11-25T00:21:18.528Z,555.65
2022-11-25T00:21:28.527Z,555.66
2022-11-25T00:21:38.535Z,555.73
2022-11-25T00:21:48.523Z,555.73
2022-11-25T00:21:58.531Z,555.66
2022-11-25T00:22:08.531Z,555.65
2022-11-25T00:22:18.554Z,555.67
2022-11-25T00:22:28.531Z,555.66
2022-11-25T00:22:38.538Z,555.74
2022-11-25T00:22:48.534Z,555.79
2022-11-25T00:22:58.534Z,555.75
2022-11-25T00:23:08.564Z,555.72
2022-11-25T00:23:18.537Z,555.70
2022-11-25T00:23:33.150Z,555.77
2022-11-25T00:23:38.548Z,555.77
2022-11-25T00:23:48.542Z,555.79
2022-11-25T00:23:58.542Z,555.80
2022-11-25T00:24:08.544Z,555.82
2022-11-25T00:24:18.551Z,555.82
2022-11-25T00:24:28.557Z,555.81
2022-11-25T00:24:38.547Z,555.86
2022-11-25T00:24:48.548Z,555.80
2022-11-25T00:24:58.546Z,555.82
2022-11-25T00:25:08.546Z,555.92
2022-11-25T00:25:18.547Z,555.85
2022-11-25T00:25:28.549Z,555.98
2022-11-25T00:25:38.557Z,556.01
2022-11-25T00:25:48.550Z,556.04
2022-11-25T00:25:58.552Z,556.01
2022-11-25T00:26:08.558Z,556.01
2022-11-25T00:26:18.574Z,555.99
2022-11-25T00:26:28.554Z,556.01
2022-11-25T00:26:38.569Z,556.02
2022-11-25T00:26:48.556Z,556.13
2022-11-25T00:26:58.556Z,556.14
2022-11-25T00:27:08.554Z,556.16
2022-11-25T00:27:18.558Z,556.19
2022-11-25T00:27:28.557Z,556.18
2022-11-25T00:27:38.557Z,556.20
2022-11-25T00:27:48.558Z,556.27
2022-11-25T00:27:58.557Z,556.31
2022-11-25T00:28:08.561Z,556.28
2022-11-25T00:28:18.558Z,556.30
2022-11-25T00:28:28.561Z,556.37
2022-11-25T00:28:38.567Z,556.36
2022-11-25T00:28:48.562Z,556.41
2022-11-25T00:28:58.568Z,556.41
2022-11-25T00:29:08.565Z,556.44
2022-11-25T00:29:18.564Z,556.40
2022-11-25T00:29:28.563Z,556.40
2022-11-25T00:29:38.565Z,556.41
2022-11-25T00:29:48.566Z,556.43
2022-11-25T00:29:58.567Z,556.43
2022-11-25T00:30:08.567Z,556.46
2022-11-25T00:30:18.568Z,556.44
2022-11-25T00:30:28.553Z,556.43
2022-11-25T00:30:38.570Z,556.42
2022-11-25T00:30:48.573Z,556.40
2022-11-25T00:30:58.570Z,556.38
2022-11-25T00:31:08.584Z,556.39
2022-11-25T00:31:18.593Z,556.38
2022-11-25T00:31:28.631Z,556.37
2022-11-25T00:31:38.660Z,556.36
2022-11-25T00:31:48.607Z,556.38
2022-11-25T00:31:58.599Z,556.40
2022-11-25T00:32:08.656Z,556.38
2022-11-25T00:32:18.575Z,556.45
2022-11-25T00:32:28.583Z,556.47
2022-11-25T00:32:38.580Z,556.44
2022-11-25T00:32:48.578Z,556.45
2022-11-25T00:32:58.584Z,556.57
2022-11-25T00:33:08.585Z,556.59
2022-11-25T00:33:18.587Z,556.53
2022-11-25T00:33:28.582Z,556.64
2022-11-25T00:33:38.585Z,556.65
2022-11-25T00:33:48.583Z,556.62
2022-11-25T00:33:58.589Z,556.72
2022-11-25T00:34:08.584Z,556.74
2022-11-25T00:34:18.584Z,556.72
2022-11-25T00:34:28.587Z,556.71
2022-11-25T00:34:38.587Z,556.72
2022-11-25T00:34:48.590Z,556.76
2022-11-25T00:34:58.589Z,556.76
2022-11-25T00:35:08.589Z,556.75
2022-11-25T00:35:18.591Z,556.75
2022-11-25T00:35:28.590Z,556.76
2022-11-25T00:35:38.592Z,556.76
2022-11-25T00:35:48.593Z,556.75
2022-11-25T00:35:58.597Z,556.83
2022-11-25T00:36:08.596Z,556.83
2022-11-25T00:36:18.598Z,556.77
2022-11-25T00:36:28.598Z,556.78
2022-11-25T00:36:38.614Z,556.75
2022-11-25T00:36:48.599Z,556.73
2022-11-25T00:36:58.602Z,556.76
2022-11-25T00:37:08.583Z,556.77
2022-11-25T00:37:18.604Z,556.79
2022-11-25T00:37:28.607Z,556.81
2022-11-25T00:37:38.607Z,556.80
2022-11-25T00:37:48.608Z,556.79
2022-11-25T00:37:58.610Z,556.71
2022-11-25T00:38:08.607Z,556.77
2022-11-25T00:38:18.610Z,556.77
2022-11-25T00:38:28.613Z,556.76
2022-11-25T00:38:38.595Z,556.76
2022-11-25T00:38:48.611Z,556.75
2022-11-25T00:38:58.597Z,556.76
2022-11-25T00:39:08.613Z,556.81
2022-11-25T00:39:18.613Z,556.81
2022-11-25T00:39:28.614Z,556.79
2022-11-25T00:39:38.602Z,556.75
2022-11-25T00:39:48.620Z,556.72
2022-11-25T00:39:58.617Z,556.72
2022-11-25T00:40:08.617Z,556.77
2022-11-25T00:40:18.600Z,556.77
2022-11-25T00:40:28.619Z,556.74
2022-11-25T00:40:38.607Z,556.79
2022-11-25T00:40:48.618Z,556.78
2022-11-25T00:40:58.620Z,556.75
2022-11-25T00:41:08.627Z,556.70
2022-11-25T00:41:18.621Z,556.74
2022-11-25T00:41:28.625Z,556.73
2022-11-25T00:41:38.644Z,556.72
2022-11-25T00:41:48.627Z,556.70
2022-11-25T00:41:58.628Z,556.68
2022-11-25T00:42:08.615Z,556.70
2022-11-25T00:42:18.631Z,556.67
2022-11-25T00:42:28.634Z,556.66
2022-11-25T00:42:38.633Z,556.66
2022-11-25T00:42:48.613Z,556.68
2022-11-25T00:42:58.634Z,556.65
2022-11-25T00:43:08.634Z,556.66
2022-11-25T00:43:18.633Z,556.56
2022-11-25T00:43:28.633Z,556.58
2022-11-25T00:43:38.635Z,556.53
2022-11-25T00:43:48.641Z,556.52
2022-11-25T00:43:58.637Z,556.45
2022-11-25T00:44:08.621Z,556.40
2022-11-25T00:44:18.638Z,556.46
2022-11-25T00:44:28.642Z,556.45
2022-11-25T00:44:39.547Z,556.44
2022-11-25T00:44:48.639Z,556.41
2022-11-25T00:44:58.640Z,556.38
2022-11-25T00:45:08.641Z,556.31
2022-11-25T00:45:18.642Z,556.27
2022-11-25T00:45:28.674Z,556.28
2022-11-25T00:45:38.809Z,556.27
2022-11-25T00:45:48.704Z,556.32
2022-11-25T00:45:58.738Z,556.33
2022-11-25T00:46:08.674Z,556.36
2022-11-25T00:46:18.699Z,556.34
2022-11-25T00:46:28.648Z,556.28
2022-11-25T00:46:38.678Z,556.25
2022-11-25T00:46:48.650Z,556.30
2022-11-25T00:46:58.650Z,556.26
2022-11-25T00:47:08.633Z,556.28
2022-11-25T00:47:18.658Z,556.30
2022-11-25T00:47:28.653Z,556.35
2022-11-25T00:47:38.653Z,556.34
2022-11-25T00:47:48.654Z,556.37
2022-11-25T00:47:58.657Z,556.37
2022-11-25T00:48:08.656Z,556.45
2022-11-25T00:48:18.658Z,556.44
2022-11-25T00:48:28.655Z,556.48
2022-11-25T00:48:38.658Z,556.45
2022-11-25T00:48:48.657Z,556.49
2022-11-25T00:48:58.660Z,556.48
2022-11-25T00:49:08.645Z,556.44
2022-11-25T00:49:18.660Z,556.40
2022-11-25T00:49:28.674Z,556.39
2022-11-25T00:49:38.662Z,556.33
2022-11-25T00:49:48.663Z,556.28
2022-11-25T00:49:58.663Z,556.32
2022-11-25T00:50:08.666Z,556.35
2022-11-25T00:50:18.664Z,556.36
2022-11-25T00:50:28.666Z,556.31
2022-11-25T00:50:38.664Z,556.33
2022-11-25T00:50:48.665Z,556.33
2022-11-25T00:50:58.671Z,556.29
2022-11-25T00:51:08.666Z,556.19
2022-11-25T00:51:18.667Z,556.15
2022-11-25T00:51:28.677Z,556.19
2022-11-25T00:51:38.682Z,556.13
2022-11-25T00:51:48.670Z,556.09
2022-11-25T00:51:58.671Z,556.13
2022-11-25T00:52:08.671Z,556.07
2022-11-25T00:52:18.674Z,556.00
2022-11-25T00:52:28.694Z,555.99
2022-11-25T00:52:38.672Z,555.99
2022-11-25T00:52:48.674Z,555.92
2022-11-25T00:52:58.661Z,556.00
2022-11-25T00:53:08.676Z,556.00
2022-11-25T00:53:18.679Z,555.96
2022-11-25T00:53:28.680Z,555.98
2022-11-25T00:53:38.680Z,556.03
2022-11-25T00:53:48.681Z,556.02
2022-11-25T00:53:59.289Z,556.02
2022-11-25T00:54:08.683Z,556.01
2022-11-25T00:54:18.682Z,555.98
2022-11-25T00:54:28.668Z,556.01
2022-11-25T00:54:38.801Z,555.97
2022-11-25T00:54:48.689Z,555.99
2022-11-25T00:54:58.688Z,555.98
2022-11-25T00:55:08.693Z,555.94
2022-11-25T00:55:18.692Z,555.98
2022-11-25T00:55:28.691Z,556.09
2022-11-25T00:55:38.692Z,556.07
2022-11-25T00:55:48.694Z,556.06
2022-11-25T00:55:58.696Z,556.10
2022-11-25T00:56:08.699Z,556.10
2022-11-25T00:56:18.693Z,556.17
2022-11-25T00:56:28.694Z,556.10
2022-11-25T00:56:38.708Z,556.08
2022-11-25T00:56:48.698Z,556.09
2022-11-25T00:56:58.697Z,556.08
2022-11-25T00:57:08.705Z,556.05
2022-11-25T00:57:18.683Z,556.05
2022-11-25T00:57:28.683Z,556.07
2022-11-25T00:57:38.701Z,556.00
2022-11-25T00:57:48.687Z,555.99
2022-11-25T00:57:58.702Z,555.95
2022-11-25T00:58:08.702Z,555.98
2022-11-25T00:58:18.706Z,555.96
2022-11-25T00:58:28.704Z,555.92
2022-11-25T00:58:38.704Z,555.93
2022-11-25T00:58:48.704Z,555.96
2022-11-25T00:58:58.710Z,556.00
2022-11-25T00:59:08.707Z,555.93
2022-11-25T00:59:18.707Z,555.91
2022-11-25T00:59:28.714Z,555.89
2022-11-25T00:59:38.711Z,555.83
2022-11-25T00:59:48.713Z,555.91
2022-11-25T00:59:58.694Z,555.92
2022-11-25T01:00:08.712Z,555.88
2022-11-25T01:00:18.715Z,555.78
2022-11-25T01:00:28.715Z,555.74
2022-11-25T01:00:38.721Z,555.72
2022-11-25T01:00:48.727Z,555.76
2022-11-25T01:00:58.789Z,555.76
2022-11-25T01:01:08.804Z,555.79
2022-11-25T01:01:18.724Z,555.79
2022-11-25T01:01:28.804Z,555.79
2022-11-25T01:01:38.779Z,555.79
2022-11-25T01:01:48.771Z,555.73
2022-11-25T01:01:58.770Z,555.72
2022-11-25T01:02:08.733Z,555.70
2022-11-25T01:02:18.826Z,555.74
2022-11-25T01:02:28.783Z,555.77
2022-11-25T01:02:38.750Z,555.87
2022-11-25T01:02:48.721Z,555.91
2022-11-25T01:02:58.722Z,555.92
2022-11-25T01:03:08.724Z,555.93
2022-11-25T01:03:18.727Z,555.94
2022-11-25T01:03:28.724Z,555.90
2022-11-25T01:03:38.726Z,555.91
2022-11-25T01:03:48.728Z,555.95
2022-11-25T01:03:58.727Z,556.04
2022-11-25T01:04:08.726Z,556.07
2022-11-25T01:04:18.710Z,556.07
2022-11-25T01:04:28.726Z,556.08
2022-11-25T01:04:38.866Z,556.05
2022-11-25T01:04:48.730Z,556.06
2022-11-25T01:04:58.732Z,556.07
2022-11-25T01:05:08.734Z,556.14
2022-11-25T01:05:18.734Z,556.11
2022-11-25T01:05:28.734Z,556.18
2022-11-25T01:05:38.734Z,556.19
2022-11-25T01:05:48.735Z,556.23
2022-11-25T01:05:58.736Z,556.23
2022-11-25T01:06:08.737Z,556.32
2022-11-25T01:06:18.742Z,556.34
2022-11-25T01:06:28.737Z,556.24
2022-11-25T01:06:38.774Z,556.29
2022-11-25T01:06:48.738Z,556.30
2022-11-25T01:06:58.739Z,556.27
2022-11-25T01:07:08.775Z,556.27
2022-11-25T01:07:18.806Z,556.29
2022-11-25T01:07:28.789Z,556.30
2022-11-25T01:07:38.759Z,556.32
2022-11-25T01:07:48.790Z,556.31
2022-11-25T01:07:58.743Z,556.30
2022-11-25T01:08:08.746Z,556.35
2022-11-25T01:08:18.743Z,556.39
2022-11-25T01:08:28.748Z,556.35
2022-11-25T01:08:38.744Z,556.34
2022-11-25T01:08:48.744Z,556.34
2022-11-25T01:08:58.747Z,556.38
2022-11-25T01:09:08.747Z,556.40
2022-11-25T01:09:18.747Z,556.35
2022-11-25T01:09:28.747Z,556.33
2022-11-25T01:09:38.747Z,556.42
2022-11-25T01:09:48.748Z,556.45
2022-11-25T01:09:58.750Z,556.42
2022-11-25T01:10:08.775Z,556.42
2022-11-25T01:10:18.753Z,556.40
2022-11-25T01:10:28.752Z,556.41
2022-11-25T01:10:38.758Z,556.38
2022-11-25T01:10:48.755Z,556.38
2022-11-25T01:10:58.757Z,556.45
2022-11-25T01:11:08.759Z,556.38
2022-11-25T01:11:18.760Z,556.27
2022-11-25T01:11:28.759Z,556.26
2022-11-25T01:11:38.757Z,556.32
2022-11-25T01:11:48.763Z,556.34
2022-11-25T01:11:58.756Z,556.31
2022-11-25T01:12:08.762Z,556.27
2022-11-25T01:12:18.761Z,556.22
2022-11-25T01:12:28.761Z,556.24
2022-11-25T01:12:38.767Z,556.21
2022-11-25T01:12:48.751Z,556.14
2022-11-25T01:12:58.765Z,556.13
2022-11-25T01:13:08.771Z,556.09
2022-11-25T01:13:18.767Z,556.09
2022-11-25T01:13:28.767Z,556.05
2022-11-25T01:13:38.770Z,556.08
2022-11-25T01:13:48.769Z,556.04
2022-11-25T01:14:01.412Z,555.98
2022-11-25T01:14:08.776Z,555.97
2022-11-25T01:14:18.774Z,555.99
2022-11-25T01:14:28.772Z,555.99
2022-11-25T01:14:39.090Z,555.93
2022-11-25T01:14:48.774Z,555.88
2022-11-25T01:14:58.772Z,555.82
2022-11-25T01:15:08.774Z,555.90
2022-11-25T01:15:18.777Z,555.85
2022-11-25T01:15:28.777Z,555.83
2022-11-25T01:15:38.777Z,555.79
2022-11-25T01:15:48.785Z,555.77
2022-11-25T01:15:58.799Z,555.71
2022-11-25T01:16:08.823Z,555.80
2022-11-25T01:16:18.846Z,555.69
2022-11-25T01:16:28.836Z,555.73
2022-11-25T01:16:38.794Z,555.74
2022-11-25T01:16:48.840Z,555.73
2022-11-25T01:16:58.787Z,555.71
2022-11-25T01:17:08.787Z,555.69
2022-11-25T01:17:18.788Z,555.62
2022-11-25T01:17:28.850Z,555.64
2022-11-25T01:17:38.790Z,555.63
2022-11-25T01:17:48.793Z,555.64
2022-11-25T01:17:58.790Z,555.70
2022-11-25T01:18:08.792Z,555.69
2022-11-25T01:18:18.797Z,555.71
2022-11-25T01:18:28.775Z,555.69
2022-11-25T01:18:38.793Z,555.69
2022-11-25T01:18:48.804Z,555.58
2022-11-25T01:18:58.798Z,555.57
2022-11-25T01:19:08.796Z,555.59
2022-11-25T01:19:18.829Z,555.59
2022-11-25T01:19:28.795Z,555.55
2022-11-25T01:19:38.798Z,555.51
2022-11-25T01:19:48.802Z,555.56
2022-11-25T01:19:58.801Z,555.57
2022-11-25T01:20:08.802Z,555.56
2022-11-25T01:20:18.804Z,555.53
2022-11-25T01:20:28.803Z,555.56
2022-11-25T01:20:38.805Z,555.56
2022-11-25T01:20:48.808Z,555.64
2022-11-25T01:20:58.807Z,555.70
2022-11-25T01:21:08.807Z,555.76
2022-11-25T01:21:18.811Z,555.82
2022-11-25T01:21:28.809Z,555.82
2022-11-25T01:21:38.811Z,555.78
2022-11-25T01:21:48.816Z,555.83
2022-11-25T01:21:58.811Z,555.88
2022-11-25T01:22:08.811Z,555.95
2022-11-25T01:22:18.812Z,555.94
2022-11-25T01:22:28.814Z,555.93
2022-11-25T01:22:38.815Z,555.94
2022-11-25T01:22:48.815Z,555.97
2022-11-25T01:22:58.797Z,555.94
2022-11-25T01:23:08.813Z,556.05
2022-11-25T01:23:18.815Z,556.06
2022-11-25T01:23:28.816Z,556.04
2022-11-25T01:23:38.799Z,556.05
2022-11-25T01:23:48.817Z,556.01
2022-11-25T01:23:58.818Z,555.99
2022-11-25T01:24:08.802Z,555.99
2022-11-25T01:24:18.818Z,555.92
2022-11-25T01:24:28.820Z,555.95
2022-11-25T01:24:39.138Z,555.93
2022-11-25T01:24:48.821Z,555.96
2022-11-25T01:24:58.821Z,556.00
2022-11-25T01:25:08.823Z,556.02
2022-11-25T01:25:18.825Z,556.03
2022-11-25T01:25:28.822Z,555.99
2022-11-25T01:25:38.826Z,555.95
2022-11-25T01:25:48.825Z,555.95
2022-11-25T01:25:58.827Z,555.93
2022-11-25T01:26:08.828Z,556.00
2022-11-25T01:26:18.829Z,556.06
2022-11-25T01:26:28.830Z,556.09
2022-11-25T01:26:38.830Z,556.12
2022-11-25T01:26:48.833Z,556.15
2022-11-25T01:26:58.833Z,556.21
2022-11-25T01:27:08.840Z,556.20
2022-11-25T01:27:18.834Z,556.14
2022-11-25T01:27:28.835Z,556.14
2022-11-25T01:27:38.841Z,556.08
2022-11-25T01:27:48.839Z,556.14
2022-11-25T01:27:58.835Z,556.11
2022-11-25T01:28:08.843Z,556.16
2022-11-25T01:28:18.838Z,556.13
2022-11-25T01:28:28.840Z,556.09
2022-11-25T01:28:38.840Z,556.08
2022-11-25T01:28:48.843Z,556.03
2022-11-25T01:28:58.842Z,556.05
2022-11-25T01:29:08.841Z,556.02
2022-11-25T01:29:18.848Z,555.99
2022-11-25T01:29:28.858Z,555.99
2022-11-25T01:29:38.844Z,555.94
2022-11-25T01:29:48.845Z,555.94
2022-11-25T01:29:58.845Z,555.88
2022-11-25T01:30:08.845Z,555.94
2022-11-25T01:30:18.849Z,555.90
2022-11-25T01:30:28.849Z,555.94
2022-11-25T01:30:41.288Z,555.92
2022-11-25T01:30:48.853Z,555.91
2022-11-25T01:30:58.851Z,555.91
2022-11-25T01:31:08.945Z,555.96
2022-11-25T01:31:18.881Z,555.98
2022-11-25T01:31:28.936Z,555.99
2022-11-25T01:31:38.875Z,555.97
2022-11-25T01:31:48.921Z,555.94
2022-11-25T01:31:58.894Z,555.88
2022-11-25T01:32:08.891Z,555.82
2022-11-25T01:32:18.858Z,555.76
2022-11-25T01:32:28.969Z,555.81
2022-11-25T01:32:38.861Z,555.73
2022-11-25T01:32:48.861Z,555.65
2022-11-25T01:32:58.864Z,555.62
2022-11-25T01:33:08.865Z,555.62
2022-11-25T01:33:18.864Z,555.58
2022-11-25T01:33:28.864Z,555.58
2022-11-25T01:33:38.872Z,555.55
2022-11-25T01:33:48.871Z,555.54
2022-11-25T01:33:58.858Z,555.55
2022-11-25T01:34:08.871Z,555.57
2022-11-25T01:34:18.871Z,555.64
2022-11-25T01:34:28.874Z,555.63
2022-11-25T01:34:39.063Z,555.62
2022-11-25T01:34:48.879Z,555.69
2022-11-25T01:34:58.875Z,555.66
2022-11-25T01:35:08.861Z,555.62
2022-11-25T01:35:18.878Z,555.71
2022-11-25T01:35:28.882Z,555.72
2022-11-25T01:35:38.881Z,555.66
2022-11-25T01:35:48.880Z,555.69
2022-11-25T01:35:58.879Z,555.77
2022-11-25T01:36:08.882Z,555.77
2022-11-25T01:36:18.883Z,555.80
2022-11-25T01:36:28.880Z,555.80
2022-11-25T01:36:38.863Z,555.76
2022-11-25T01:36:48.890Z,555.74
2022-11-25T01:36:58.884Z,555.83
2022-11-25T01:37:08.883Z,555.80
2022-11-25T01:37:18.868Z,555.80
2022-11-25T01:37:28.886Z,555.81
2022-11-25T01:37:38.884Z,555.82
2022-11-25T01:37:48.885Z,555.84
2022-11-25T01:37:58.888Z,555.84
2022-11-25T01:38:08.890Z,555.88
2022-11-25T01:38:18.929Z,555.91
2022-11-25T01:38:28.869Z,555.95
2022-11-25T01:38:38.890Z,555.99
2022-11-25T01:38:48.891Z,556.02
2022-11-25T01:38:58.900Z,556.10
2022-11-25T01:39:08.893Z,556.06
2022-11-25T01:39:18.878Z,556.02
2022-11-25T01:39:32.942Z,555.98
2022-11-25T01:39:38.901Z,556.01
2022-11-25T01:39:48.896Z,556.02
2022-11-25T01:39:58.898Z,556.06
2022-11-25T01:40:08.899Z,556.12
2022-11-25T01:40:18.898Z,556.16
2022-11-25T01:40:28.883Z,556.12
2022-11-25T01:40:38.905Z,556.11
2022-11-25T01:40:48.902Z,556.19
2022-11-25T01:40:58.902Z,556.17
2022-11-25T01:41:08.907Z,556.17
2022-11-25T01:41:18.904Z,556.19
2022-11-25T01:41:28.904Z,556.27
2022-11-25T01:41:38.908Z,556.25
2022-11-25T01:41:48.909Z,556.31
2022-11-25T01:41:58.913Z,556.43
2022-11-25T01:42:08.893Z,556.43
2022-11-25T01:42:18.909Z,556.49
2022-11-25T01:42:28.937Z,556.56
2022-11-25T01:42:38.917Z,556.58
2022-11-25T01:42:48.912Z,556.54
2022-11-25T01:42:58.915Z,556.55
2022-11-25T01:43:08.912Z,556.57
2022-11-25T01:43:18.913Z,556.61
2022-11-25T01:43:28.913Z,556.68
2022-11-25T01:43:38.915Z,556.73
2022-11-25T01:43:48.914Z,556.77
2022-11-25T01:43:58.898Z,556.73
2022-11-25T01:44:08.918Z,556.75
2022-11-25T01:44:18.917Z,556.72
2022-11-25T01:44:28.923Z,556.81
2022-11-25T01:44:39.177Z,556.76
2022-11-25T01:44:48.920Z,556.86
2022-11-25T01:44:58.922Z,556.85
2022-11-25T01:45:08.926Z,556.94
2022-11-25T01:45:18.925Z,556.94
2022-11-25T01:45:29.045Z,556.89
2022-11-25T01:45:38.931Z,556.89
2022-11-25T01:45:48.966Z,556.98
2022-11-25T01:45:58.962Z,556.96
2022-11-25T01:46:09.022Z,556.97
2022-11-25T01:46:18.969Z,556.97
2022-11-25T01:46:28.934Z,556.92
2022-11-25T01:46:38.936Z,556.91
2022-11-25T01:46:48.932Z,556.93
2022-11-25T01:46:58.937Z,556.86
2022-11-25T01:47:08.931Z,556.91
2022-11-25T01:47:18.933Z,556.93
2022-11-25T01:47:28.942Z,556.94
2022-11-25T01:47:38.941Z,556.88
2022-11-25T01:47:48.937Z,556.91
2022-11-25T01:47:58.940Z,556.93
2022-11-25T01:48:08.938Z,556.98
2022-11-25T01:48:18.940Z,557.03
2022-11-25T01:48:28.946Z,556.97
2022-11-25T01:48:38.944Z,557.02
2022-11-25T01:48:48.943Z,557.02
2022-11-25T01:48:58.951Z,557.05
2022-11-25T01:49:08.946Z,557.07
2022-11-25T01:49:18.946Z,557.07
2022-11-25T01:49:28.955Z,557.05
2022-11-25T01:49:38.950Z,557.03
2022-11-25T01:49:48.947Z,556.97
2022-11-25T01:49:58.954Z,557.02
2022-11-25T01:50:08.952Z,557.01
2022-11-25T01:50:18.952Z,556.98
2022-11-25T01:50:28.954Z,556.93
2022-11-25T01:50:38.935Z,556.91
2022-11-25T01:50:48.955Z,556.85
2022-11-25T01:50:58.939Z,556.85
2022-11-25T01:51:08.956Z,556.77
2022-11-25T01:51:18.959Z,556.73
2022-11-25T01:51:28.958Z,556.78
2022-11-25T01:51:38.942Z,556.77
2022-11-25T01:51:48.969Z,556.76
2022-11-25T01:51:58.957Z,556.75
2022-11-25T01:52:08.959Z,556.68
2022-11-25T01:52:18.965Z,556.72
2022-11-25T01:52:28.962Z,556.82
2022-11-25T01:52:38.964Z,556.89
2022-11-25T01:52:48.966Z,556.90
2022-11-25T01:52:58.965Z,556.97
2022-11-25T01:53:08.964Z,557.00
2022-11-25T01:53:18.967Z,557.05
2022-11-25T01:53:28.968Z,557.01
2022-11-25T01:53:38.969Z,557.04
2022-11-25T01:53:48.969Z,557.01
2022-11-25T01:53:58.973Z,556.93
2022-11-25T01:54:08.974Z,556.93
2022-11-25T01:54:18.970Z,556.94
2022-11-25T01:54:28.975Z,556.89
2022-11-25T01:54:38.963Z,556.93
2022-11-25T01:54:48.973Z,556.94
2022-11-25T01:54:58.973Z,556.87
2022-11-25T01:55:08.959Z,556.89
2022-11-25T01:55:19.007Z,556.83
2022-11-25T01:55:28.974Z,556.83
2022-11-25T01:55:38.978Z,556.87
2022-11-25T01:55:48.977Z,556.96
2022-11-25T01:55:58.963Z,556.93
2022-11-25T01:56:08.964Z,556.94
2022-11-25T01:56:18.981Z,556.93
2022-11-25T01:56:28.982Z,556.94
2022-11-25T01:56:38.967Z,556.91
2022-11-25T01:56:48.972Z,556.91
2022-11-25T01:56:58.987Z,556.97
2022-11-25T01:57:08.987Z,556.91
2022-11-25T01:57:18.988Z,556.98
2022-11-25T01:57:28.990Z,556.97
2022-11-25T01:57:38.974Z,556.93
2022-11-25T01:57:48.990Z,556.89
2022-11-25T01:57:58.992Z,556.88
2022-11-25T01:58:08.992Z,556.89
2022-11-25T01:58:18.978Z,556.92
2022-11-25T01:58:28.996Z,556.96
2022-11-25T01:58:38.977Z,556.96
2022-11-25T01:58:48.978Z,556.96
2022-11-25T01:58:59.005Z,556.95
2022-11-25T01:59:08.981Z,556.95
2022-11-25T01:59:19.024Z,557.05
2022-11-25T01:59:28.999Z,557.00
2022-11-25T01:59:38.981Z,557.03
2022-11-25T01:59:49.006Z,557.13
2022-11-25T01:59:59.007Z,557.07
2022-11-25T02:00:08.999Z,557.09
2022-11-25T02:00:19.001Z,557.10
2022-11-25T02:00:28.984Z,557.13
2022-11-25T02:00:39.001Z,557.09
2022-11-25T02:00:49.048Z,557.11
2022-11-25T02:00:59.060Z,557.13
2022-11-25T02:01:09.042Z,557.01
2022-11-25T02:01:19.118Z,556.96
2022-11-25T02:01:29.040Z,557.06
2022-11-25T02:01:39.018Z,557.05
2022-11-25T02:01:49.044Z,557.06
2022-11-25T02:01:59.034Z,557.01
2022-11-25T02:02:09.029Z,556.93
2022-11-25T02:02:19.072Z,556.95
2022-11-25T02:02:29.086Z,556.89
2022-11-25T02:02:39.045Z,556.85
2022-11-25T02:02:49.111Z,556.86
2022-11-25T02:02:59.018Z,556.89
2022-11-25T02:03:09.019Z,556.83
2022-11-25T02:03:19.039Z,556.80
2022-11-25T02:03:29.017Z,556.76
2022-11-25T02:03:39.018Z,556.71
2022-11-25T02:03:49.017Z,556.67
2022-11-25T02:03:59.017Z,556.60
2022-11-25T02:04:09.023Z,556.61
2022-11-25T02:04:19.018Z,556.62
2022-11-25T02:04:29.030Z,556.66
2022-11-25T02:04:39.022Z,556.67
2022-11-25T02:04:49.023Z,556.61